createdAt,value
2018-04-29T00:00:56.634Z,14.60
2018-04-29T00:03:24.693Z,14.60
2018-04-29T00:05:52.617Z,14.50
2018-04-29T00:08:20.496Z,14.50
2018-04-29T00:10:49.275Z,14.60
2018-04-29T00:15:49.958Z,14.50
2018-04-29T00:18:17.855Z,14.50
2018-04-29T00:20:45.737Z,14.50
2018-04-29T00:23:13.816Z,14.40
2018-04-29T00:25:41.676Z,14.30
2018-04-29T00:28:09.518Z,14.30
2018-04-29T00:30:37.216Z,14.30
2018-04-29T00:33:05.094Z,14.30
2018-04-29T00:35:33.134Z,14.40
2018-04-29T00:38:00.953Z,14.40
2018-04-29T00:40:28.793Z,14.30
2018-04-29T00:42:56.793Z,14.30
2018-04-29T00:45:24.694Z,14.40
2018-04-29T00:47:52.514Z,14.30
2018-04-29T00:50:20.515Z,14.30
2018-04-29T00:52:48.714Z,14.30
2018-04-29T00:55:17.015Z,14.30
2018-04-29T00:57:45.135Z,14.30
2018-04-29T01:00:12.954Z,14.20
2018-04-29T01:02:40.793Z,14.20
2018-04-29T01:05:08.633Z,14.20
2018-04-29T01:07:36.635Z,14.20
2018-04-29T01:10:04.675Z,14.20
2018-04-29T01:12:32.515Z,14.20
2018-04-29T01:15:00.375Z,14.10
2018-04-29T01:17:28.253Z,14.00
2018-04-29T01:19:56.977Z,13.90
2018-04-29T01:22:25.174Z,13.90
2018-04-29T01:24:53.174Z,13.90
2018-04-29T01:27:21.173Z,14.00
2018-04-29T01:29:49.073Z,14.00
2018-04-29T01:32:16.894Z,14.00
2018-04-29T01:34:44.794Z,13.90
2018-04-29T01:37:14.134Z,13.90
2018-04-29T01:39:42.073Z,13.80
2018-04-29T01:42:10.334Z,13.90
2018-04-29T01:44:38.654Z,13.70
2018-04-29T01:47:06.513Z,13.50
2018-04-29T01:49:34.394Z,13.20
2018-04-29T01:52:02.393Z,13.00
2018-04-29T01:54:30.294Z,12.90
2018-04-29T01:56:58.458Z,13.00
2018-04-29T01:59:26.418Z,13.10
2018-04-29T02:01:54.755Z,13.10
2018-04-29T02:04:22.855Z,13.20
2018-04-29T02:06:51.535Z,13.20
2018-04-29T02:09:19.457Z,13.20
2018-04-29T02:11:47.375Z,13.30
2018-04-29T02:14:15.195Z,13.30
2018-04-29T02:16:43.935Z,13.40
2018-04-29T02:19:11.835Z,13.30
2018-04-29T02:21:39.714Z,13.30
2018-04-29T02:24:07.674Z,13.30
2018-04-29T02:26:35.494Z,13.20
2018-04-29T02:29:03.474Z,13.00
2018-04-29T02:31:31.735Z,13.00
2018-04-29T02:33:59.615Z,13.00
2018-04-29T02:36:27.695Z,13.00
2018-04-29T02:38:55.495Z,13.00
2018-04-29T02:41:24.118Z,12.90
2018-04-29T02:43:51.975Z,12.90
2018-04-29T02:46:19.834Z,12.70
2018-04-29T02:48:47.775Z,12.60
2018-04-29T02:51:16.055Z,12.50
2018-04-29T02:53:44.555Z,12.50
2018-04-29T02:56:12.435Z,12.50
2018-04-29T02:58:40.294Z,12.50
2018-04-29T03:01:08.335Z,12.50
2018-04-29T03:03:36.194Z,12.50
2018-04-29T03:06:04.174Z,12.60
2018-04-29T03:08:33.035Z,12.70
2018-04-29T03:11:01.955Z,12.70
2018-04-29T03:13:30.095Z,12.60
2018-04-29T03:15:58.195Z,12.60
2018-04-29T03:18:26.475Z,12.50
2018-04-29T03:20:54.514Z,12.40
2018-04-29T03:23:22.394Z,12.30
2018-04-29T03:25:50.395Z,12.30
2018-04-29T03:28:18.575Z,12.30
2018-04-29T03:30:46.514Z,12.30
2018-04-29T03:33:14.335Z,12.40
2018-04-29T03:35:43.254Z,12.40
2018-04-29T03:38:11.195Z,12.40
2018-04-29T03:40:39.080Z,12.40
2018-04-29T03:43:07.354Z,12.40
2018-04-29T03:45:35.574Z,12.40
2018-04-29T03:48:03.396Z,12.40
2018-04-29T03:50:31.154Z,12.30
2018-04-29T03:52:59.834Z,12.20
2018-04-29T03:55:27.774Z,12.20
2018-04-29T03:58:07.254Z,12.20
2018-04-29T04:00:47.616Z,12.30
2018-04-29T04:03:27.554Z,12.20
2018-04-29T04:05:55.335Z,12.30
2018-04-29T04:08:24.216Z,12.40
2018-04-29T04:10:52.315Z,12.30
2018-04-29T04:13:20.435Z,12.40
2018-04-29T04:15:48.279Z,12.50
2018-04-29T04:18:16.356Z,12.60
2018-04-29T04:20:45.656Z,12.90
2018-04-29T04:23:13.495Z,12.90
2018-04-29T04:25:41.455Z,13.20
2018-04-29T04:28:09.436Z,13.50
2018-04-29T04:30:37.635Z,13.80
2018-04-29T04:33:05.637Z,14.00
2018-04-29T04:35:34.196Z,14.60
2018-04-29T04:38:02.356Z,14.60
2018-04-29T04:40:30.235Z,15.00
2018-04-29T04:42:58.135Z,15.40
2018-04-29T04:45:26.155Z,15.70
2018-04-29T04:47:54.095Z,16.00
2018-04-29T04:50:22.442Z,16.50
2018-04-29T04:52:50.335Z,16.90
2018-04-29T04:55:18.555Z,17.40
2018-04-29T04:57:47.298Z,18.20
2018-04-29T05:00:15.058Z,18.10
2018-04-29T05:02:42.874Z,18.60
2018-04-29T05:05:10.842Z,19.10
2018-04-29T05:07:40.374Z,19.40
2018-04-29T05:10:08.326Z,19.70
2018-04-29T05:12:36.376Z,20.00
2018-04-29T05:15:04.254Z,20.10
2018-04-29T05:17:32.075Z,20.10
2018-04-29T05:19:59.953Z,20.20
2018-04-29T05:22:27.714Z,20.30
2018-04-29T05:24:55.581Z,20.70
2018-04-29T05:27:23.653Z,20.80
2018-04-29T05:29:52.339Z,21.10
2018-04-29T05:32:21.341Z,21.50
2018-04-29T05:34:49.175Z,21.50
2018-04-29T05:37:16.995Z,21.80
2018-04-29T05:39:44.898Z,22.40
2018-04-29T05:42:12.734Z,22.90
2018-04-29T05:44:40.494Z,23.80
2018-04-29T05:47:08.654Z,24.40
2018-04-29T05:49:36.474Z,25.20
2018-04-29T05:52:04.414Z,25.30
2018-04-29T05:54:32.315Z,26.10
2018-04-29T05:57:07.641Z,27.00
2018-04-29T05:59:43.161Z,27.80
2018-04-29T06:02:17.948Z,28.30
2018-04-29T06:04:54.363Z,28.10
2018-04-29T06:07:30.739Z,28.00
2018-04-29T06:10:06.201Z,26.90
2018-04-29T06:12:34.095Z,25.70
2018-04-29T06:15:01.983Z,25.30
2018-04-29T06:17:29.876Z,25.00
2018-04-29T06:19:57.656Z,24.50
2018-04-29T06:22:25.595Z,24.30
2018-04-29T06:24:54.275Z,23.60
2018-04-29T06:27:22.077Z,23.60
2018-04-29T06:29:50.076Z,23.40
2018-04-29T06:32:18.135Z,23.30
2018-04-29T06:34:45.995Z,23.40
2018-04-29T06:37:14.675Z,23.20
2018-04-29T06:39:42.615Z,23.20
2018-04-29T06:42:10.995Z,23.30
2018-04-29T06:44:38.855Z,23.30
2018-04-29T06:47:06.715Z,23.20
2018-04-29T06:49:35.495Z,23.10
2018-04-29T06:52:03.455Z,23.10
2018-04-29T06:54:31.655Z,23.10
2018-04-29T06:56:59.475Z,23.10
2018-04-29T06:59:27.355Z,23.10
2018-04-29T07:01:55.396Z,23.10
2018-04-29T07:04:23.258Z,23.20
2018-04-29T07:06:51.416Z,23.30
2018-04-29T07:09:20.196Z,23.30
2018-04-29T07:11:48.056Z,23.30
2018-04-29T07:14:15.888Z,23.40
2018-04-29T07:16:43.839Z,23.40
2018-04-29T07:19:11.698Z,23.30
2018-04-29T07:21:39.741Z,23.20
2018-04-29T07:24:07.698Z,23.20
2018-04-29T07:26:35.458Z,23.30
2018-04-29T07:29:04.195Z,23.00
2018-04-29T07:31:32.118Z,23.00
2018-04-29T07:34:01.483Z,23.10
2018-04-29T07:36:29.357Z,23.10
2018-04-29T07:38:57.177Z,23.20
2018-04-29T07:41:25.057Z,23.40
2018-04-29T07:43:53.276Z,23.60
2018-04-29T07:46:21.347Z,23.80
2018-04-29T07:48:49.157Z,24.00
2018-04-29T07:51:17.096Z,24.10
2018-04-29T07:53:44.852Z,24.20
2018-04-29T07:56:12.516Z,24.30
2018-04-29T07:58:40.267Z,24.30
2018-04-29T08:01:08.139Z,24.40
2018-04-29T08:03:35.940Z,24.50
2018-04-29T08:06:03.832Z,24.60
2018-04-29T08:08:31.603Z,24.70
2018-04-29T08:10:59.980Z,24.90
2018-04-29T08:13:27.845Z,24.90
2018-04-29T08:15:55.548Z,25.00
2018-04-29T08:18:23.244Z,25.00
2018-04-29T08:20:50.983Z,25.10
2018-04-29T08:23:18.665Z,25.00
2018-04-29T08:25:46.395Z,25.00
2018-04-29T08:28:14.179Z,25.00
2018-04-29T08:30:41.903Z,25.10
2018-04-29T08:33:09.657Z,25.30
2018-04-29T08:35:37.578Z,25.50
2018-04-29T08:38:05.251Z,25.60
2018-04-29T08:40:33.025Z,25.70
2018-04-29T08:43:00.859Z,25.60
2018-04-29T08:45:28.604Z,25.40
2018-04-29T08:47:56.290Z,25.40
2018-04-29T08:50:24.120Z,25.50
2018-04-29T08:52:51.839Z,25.70
2018-04-29T08:55:19.583Z,25.80
2018-04-29T08:57:47.377Z,25.90
2018-04-29T09:00:15.051Z,26.10
2018-04-29T09:02:42.920Z,26.10
2018-04-29T09:05:10.920Z,26.20
2018-04-29T09:07:38.740Z,26.10
2018-04-29T09:10:06.563Z,26.20
2018-04-29T09:12:34.315Z,26.10
2018-04-29T09:15:02.003Z,26.10
2018-04-29T09:17:29.683Z,26.00
2018-04-29T09:19:58.231Z,26.00
2018-04-29T09:22:26.099Z,26.00
2018-04-29T09:24:54.339Z,26.10
2018-04-29T09:27:22.283Z,26.20
2018-04-29T09:29:49.954Z,26.30
2018-04-29T09:32:17.670Z,26.40
2018-04-29T09:34:45.478Z,26.40
2018-04-29T09:37:13.319Z,26.40
2018-04-29T09:39:41.342Z,26.30
2018-04-29T09:42:09.502Z,26.30
2018-04-29T09:44:37.376Z,26.40
2018-04-29T09:47:05.290Z,26.40
2018-04-29T09:49:33.263Z,26.40
2018-04-29T09:52:01.182Z,26.30
2018-04-29T09:54:29.096Z,26.30
2018-04-29T09:56:57.041Z,26.40
2018-04-29T09:59:25.261Z,26.40
2018-04-29T10:01:53.382Z,26.30
2018-04-29T10:04:21.840Z,26.20
2018-04-29T10:06:49.640Z,26.20
2018-04-29T10:09:18.236Z,26.20
2018-04-29T10:11:47.465Z,26.10
2018-04-29T10:14:16.504Z,26.20
2018-04-29T10:16:45.632Z,26.10
2018-04-29T10:19:13.468Z,26.10
2018-04-29T10:21:42.014Z,26.00
2018-04-29T10:24:10.607Z,26.10
2018-04-29T10:26:38.450Z,26.10
2018-04-29T10:29:06.458Z,26.20
2018-04-29T10:31:34.202Z,26.20
2018-04-29T10:34:02.782Z,26.30
2018-04-29T10:36:30.944Z,26.20
2018-04-29T10:38:58.718Z,26.30
2018-04-29T10:41:26.979Z,26.30
2018-04-29T10:43:54.778Z,26.40
2018-04-29T10:46:22.657Z,26.50
2018-04-29T10:48:50.678Z,26.50
2018-04-29T10:51:18.619Z,26.40
2018-04-29T10:53:46.500Z,26.40
2018-04-29T10:56:15.744Z,26.40
2018-04-29T10:58:43.615Z,26.30
2018-04-29T11:01:11.478Z,26.20
2018-04-29T11:03:39.357Z,26.20
2018-04-29T11:06:06.777Z,26.30
2018-04-29T11:08:34.976Z,26.30
2018-04-29T11:11:02.978Z,26.30
2018-04-29T11:13:30.842Z,26.40
2018-04-29T11:15:59.537Z,26.40
2018-04-29T11:18:27.721Z,26.40
2018-04-29T11:20:55.697Z,26.30
2018-04-29T11:23:23.417Z,26.40
2018-04-29T11:25:51.578Z,26.40
2018-04-29T11:28:19.382Z,26.30
2018-04-29T11:30:47.199Z,26.30
2018-04-29T11:33:14.722Z,26.30
2018-04-29T11:35:42.640Z,26.30
2018-04-29T11:38:10.960Z,26.50
2018-04-29T11:40:39.358Z,26.50
2018-04-29T11:43:08.064Z,26.50
2018-04-29T11:45:36.218Z,26.50
2018-04-29T11:48:04.312Z,26.50
2018-04-29T11:50:32.300Z,26.50
2018-04-29T11:52:59.780Z,26.50
2018-04-29T11:55:27.258Z,26.50
2018-04-29T11:57:55.301Z,26.60
2018-04-29T12:00:23.080Z,26.50
2018-04-29T12:02:50.457Z,26.60
2018-04-29T12:05:19.138Z,26.50
2018-04-29T12:07:46.598Z,26.50
2018-04-29T12:10:14.458Z,26.50
2018-04-29T12:12:42.138Z,26.60
2018-04-29T12:15:10.238Z,26.60
2018-04-29T12:17:38.377Z,26.60
2018-04-29T12:20:06.378Z,26.40
2018-04-29T12:22:33.813Z,26.30
2018-04-29T12:25:01.717Z,26.30
2018-04-29T12:27:29.957Z,26.50
2018-04-29T12:29:57.336Z,26.40
2018-04-29T12:32:25.279Z,26.50
2018-04-29T12:34:53.117Z,26.50
2018-04-29T12:37:20.980Z,26.60
2018-04-29T12:39:48.389Z,26.60
2018-04-29T12:42:15.859Z,26.60
2018-04-29T12:44:43.637Z,26.60
2018-04-29T12:47:22.042Z,26.50
2018-04-29T12:49:56.284Z,26.50
2018-04-29T12:52:32.464Z,26.50
2018-04-29T12:55:03.321Z,26.50
2018-04-29T12:57:36.125Z,26.50
2018-04-29T13:00:05.975Z,26.60
2018-04-29T13:02:41.134Z,26.60
2018-04-29T13:05:13.402Z,26.50
2018-04-29T13:07:47.676Z,26.40
2018-04-29T13:10:20.925Z,26.50
2018-04-29T13:12:53.566Z,26.50
2018-04-29T13:15:26.844Z,26.50
2018-04-29T13:17:54.177Z,26.50
2018-04-29T13:20:22.098Z,26.60
2018-04-29T13:22:49.697Z,26.60
2018-04-29T13:25:17.057Z,26.60
2018-04-29T13:27:45.898Z,26.50
2018-04-29T13:30:13.938Z,26.60
2018-04-29T13:32:41.697Z,26.50
2018-04-29T13:35:09.242Z,26.60
2018-04-29T13:37:36.725Z,26.50
2018-04-29T13:40:05.357Z,26.40
2018-04-29T13:42:33.278Z,26.40
2018-04-29T13:45:01.423Z,26.40
2018-04-29T13:47:28.861Z,26.40
2018-04-29T13:49:56.541Z,26.40
2018-04-29T13:52:24.660Z,26.40
2018-04-29T13:54:52.041Z,26.40
2018-04-29T13:57:19.470Z,26.40
2018-04-29T13:59:47.839Z,26.40
2018-04-29T14:02:16.179Z,26.20
2018-04-29T14:04:44.041Z,26.10
2018-04-29T14:07:12.037Z,26.10
2018-04-29T14:09:39.838Z,26.20
2018-04-29T14:12:07.659Z,26.20
2018-04-29T14:14:35.616Z,26.20
2018-04-29T14:17:04.256Z,26.00
2018-04-29T14:19:32.197Z,26.00
2018-04-29T14:22:00.436Z,25.80
2018-04-29T14:24:27.678Z,25.80
2018-04-29T14:26:55.055Z,25.70
2018-04-29T14:29:22.795Z,25.60
2018-04-29T14:31:50.115Z,25.50
2018-04-29T14:34:17.815Z,25.40
2018-04-29T14:36:45.737Z,25.30
2018-04-29T14:39:14.316Z,25.20
2018-04-29T14:41:41.835Z,25.20
2018-04-29T14:44:10.115Z,25.20
2018-04-29T14:46:37.615Z,25.10
2018-04-29T14:49:05.355Z,25.10
2018-04-29T14:51:33.015Z,25.10
2018-04-29T14:54:00.854Z,25.10
2018-04-29T14:56:28.696Z,25.00
2018-04-29T14:58:56.714Z,25.00
2018-04-29T15:01:24.315Z,24.90
2018-04-29T15:03:51.904Z,24.90
2018-04-29T15:06:19.921Z,24.90
2018-04-29T15:11:19.381Z,25.00
2018-04-29T15:13:48.341Z,25.00
2018-04-29T15:16:15.822Z,25.00
2018-04-29T15:18:49.193Z,25.10
2018-04-29T15:21:17.158Z,25.00
2018-04-29T15:23:44.477Z,25.00
2018-04-29T15:26:12.295Z,25.10
2018-04-29T15:28:40.215Z,25.00
2018-04-29T15:31:07.677Z,25.00
2018-04-29T15:33:36.115Z,24.90
2018-04-29T15:36:03.737Z,24.90
2018-04-29T15:38:31.155Z,24.90
2018-04-29T15:40:59.136Z,24.80
2018-04-29T15:43:26.456Z,24.80
2018-04-29T15:48:26.557Z,24.70
2018-04-29T15:50:54.443Z,24.70
2018-04-29T15:53:22.325Z,24.70
2018-04-29T15:55:50.196Z,24.70
2018-04-29T15:58:17.850Z,24.70
2018-04-29T16:00:45.589Z,24.60
2018-04-29T16:03:14.282Z,24.60
2018-04-29T16:05:42.087Z,24.60
2018-04-29T16:08:09.915Z,24.60
2018-04-29T16:10:37.704Z,24.60
2018-04-29T16:13:05.715Z,24.60
2018-04-29T16:15:33.557Z,24.60
2018-04-29T16:18:01.462Z,24.50
2018-04-29T16:20:29.230Z,24.40
2018-04-29T16:22:56.900Z,24.30
2018-04-29T16:25:24.722Z,24.30
2018-04-29T16:27:53.279Z,24.20
2018-04-29T16:30:21.750Z,24.20
2018-04-29T16:32:52.632Z,24.00
2018-04-29T16:35:23.762Z,24.00
2018-04-29T16:37:52.590Z,24.00
2018-04-29T16:40:26.314Z,24.00
2018-04-29T16:42:54.215Z,24.00
2018-04-29T16:45:22.154Z,23.90
2018-04-29T16:47:50.034Z,23.80
2018-04-29T16:50:17.877Z,23.80
2018-04-29T16:52:45.761Z,23.70
2018-04-29T16:55:13.995Z,23.60
2018-04-29T16:57:43.855Z,23.50
2018-04-29T17:00:12.252Z,23.50
2018-04-29T17:02:40.196Z,23.40
2018-04-29T17:05:08.116Z,23.30
2018-04-29T17:07:36.179Z,23.20
2018-04-29T17:10:04.438Z,23.20
2018-04-29T17:12:32.539Z,23.10
2018-04-29T17:15:00.521Z,23.10
2018-04-29T17:17:28.717Z,23.10
2018-04-29T17:19:56.716Z,23.10
2018-04-29T17:22:24.841Z,23.10
2018-04-29T17:24:53.363Z,23.10
2018-04-29T17:27:21.637Z,23.10
2018-04-29T17:29:49.665Z,23.00
2018-04-29T17:32:18.107Z,23.00
2018-04-29T17:34:46.620Z,22.90
2018-04-29T17:37:14.779Z,22.90
2018-04-29T17:39:43.581Z,22.80
2018-04-29T17:42:11.598Z,22.70
2018-04-29T17:44:39.397Z,22.70
2018-04-29T17:47:07.237Z,22.60
2018-04-29T17:49:35.331Z,22.60
2018-04-29T17:52:03.178Z,22.50
2018-04-29T17:54:31.257Z,22.40
2018-04-29T17:56:59.201Z,22.40
2018-04-29T17:59:27.057Z,22.30
2018-04-29T18:01:55.103Z,22.30
2018-04-29T18:04:22.942Z,22.20
2018-04-29T18:06:50.962Z,22.10
2018-04-29T18:09:19.223Z,22.10
2018-04-29T18:11:48.243Z,22.00
2018-04-29T18:14:16.205Z,22.00
2018-04-29T18:16:44.009Z,21.90
2018-04-29T18:19:11.961Z,21.90
2018-04-29T18:21:39.722Z,21.80
2018-04-29T18:24:07.485Z,21.70
2018-04-29T18:26:35.293Z,21.60
2018-04-29T18:29:03.099Z,21.60
2018-04-29T18:31:32.105Z,21.50
2018-04-29T18:33:59.882Z,21.40
2018-04-29T18:36:27.723Z,21.40
2018-04-29T18:38:55.718Z,21.30
2018-04-29T18:41:23.496Z,21.30
2018-04-29T18:43:51.457Z,21.20
2018-04-29T18:46:19.957Z,21.20
2018-04-29T18:48:47.738Z,21.20
2018-04-29T18:51:15.744Z,21.10
2018-04-29T18:53:43.386Z,21.10
2018-04-29T18:58:43.142Z,20.90
2018-04-29T19:01:11.177Z,20.70
2018-04-29T19:03:39.005Z,20.40
2018-04-29T19:06:06.842Z,20.20
2018-04-29T19:08:34.599Z,20.00
2018-04-29T19:11:02.405Z,19.80
2018-04-29T19:13:30.203Z,19.70
2018-04-29T19:15:57.937Z,19.60
2018-04-29T19:18:25.740Z,19.60
2018-04-29T19:20:53.599Z,19.70
2018-04-29T19:23:21.337Z,19.80
2018-04-29T19:25:49.080Z,19.90
2018-04-29T19:28:17.584Z,20.10
2018-04-29T19:30:45.337Z,20.10
2018-04-29T19:33:13.110Z,20.10
2018-04-29T19:35:40.822Z,20.20
2018-04-29T19:38:08.526Z,20.20
2018-04-29T19:40:36.276Z,20.20
2018-04-29T19:43:04.085Z,20.30
2018-04-29T19:45:31.859Z,20.30
2018-04-29T19:47:59.691Z,20.30
2018-04-29T19:50:27.435Z,20.20
2018-04-29T19:52:55.300Z,20.20
2018-04-29T19:55:23.099Z,20.20
2018-04-29T19:57:51.915Z,20.00
2018-04-29T20:00:19.723Z,20.00
2018-04-29T20:02:47.546Z,19.90
2018-04-29T20:05:15.301Z,19.70
2018-04-29T20:07:43.038Z,19.60
2018-04-29T20:10:10.891Z,19.50
2018-04-29T20:12:38.871Z,19.50
2018-04-29T20:15:06.603Z,19.40
2018-04-29T20:17:34.405Z,19.40
2018-04-29T20:20:02.148Z,19.40
2018-04-29T20:22:29.896Z,19.40
2018-04-29T20:24:57.641Z,19.40
2018-04-29T20:27:26.493Z,19.40
2018-04-29T20:29:54.373Z,19.40
2018-04-29T20:35:30.106Z,19.30
2018-04-29T20:37:58.176Z,19.40
2018-04-29T20:40:25.977Z,19.30
2018-04-29T20:42:54.959Z,19.30
2018-04-29T20:45:22.817Z,19.30
2018-04-29T20:47:50.678Z,19.40
2018-04-29T20:50:18.780Z,19.40
2018-04-29T20:52:46.767Z,19.40
2018-04-29T20:55:14.810Z,19.50
2018-04-29T20:57:42.857Z,19.50
2018-04-29T21:00:10.667Z,19.50
2018-04-29T21:02:39.360Z,19.40
2018-04-29T21:05:08.795Z,19.40
2018-04-29T21:07:36.816Z,19.30
2018-04-29T21:10:04.815Z,19.20
2018-04-29T21:12:32.855Z,19.20
2018-04-29T21:15:00.895Z,19.20
2018-04-29T21:17:28.872Z,19.10
2018-04-29T21:19:56.775Z,19.10
2018-04-29T21:22:24.682Z,19.00
2018-04-29T21:24:53.075Z,19.00
2018-04-29T21:27:21.138Z,19.00
2018-04-29T21:29:48.961Z,19.00
2018-04-29T21:32:17.059Z,18.90
2018-04-29T21:34:44.956Z,18.90
2018-04-29T21:37:13.777Z,18.90
2018-04-29T21:39:41.754Z,18.80
2018-04-29T21:42:09.695Z,18.80
2018-04-29T21:44:37.695Z,18.80
2018-04-29T21:47:05.734Z,18.80
2018-04-29T21:49:33.579Z,18.70
2018-04-29T21:52:01.495Z,18.60
2018-04-29T21:54:29.676Z,18.60
2018-04-29T21:56:58.875Z,18.50
2018-04-29T21:59:26.783Z,18.50
2018-04-29T22:01:54.640Z,18.50
2018-04-29T22:04:22.674Z,18.50
2018-04-29T22:06:50.580Z,18.40
2018-04-29T22:09:18.541Z,18.40
2018-04-29T22:11:46.491Z,18.40
2018-04-29T22:14:14.299Z,18.40
2018-04-29T22:16:42.582Z,18.40
2018-04-29T22:19:11.262Z,18.20
2018-04-29T22:21:39.123Z,18.20
2018-04-29T22:24:07.199Z,18.20
2018-04-29T22:26:35.339Z,18.10
2018-04-29T22:29:03.258Z,18.10
2018-04-29T22:31:31.159Z,18.10
2018-04-29T22:33:59.139Z,18.00
2018-04-29T22:36:27.079Z,18.00
2018-04-29T22:38:55.012Z,18.00
2018-04-29T22:41:23.099Z,18.00
2018-04-29T22:43:50.919Z,17.90
2018-04-29T22:46:19.104Z,17.90
2018-04-29T22:48:47.379Z,17.90
2018-04-29T22:51:15.259Z,17.80
2018-04-29T22:53:43.198Z,17.80
2018-04-29T22:56:11.320Z,17.80
2018-04-29T22:58:40.178Z,17.70
2018-04-29T23:01:08.906Z,17.60
2018-04-29T23:03:36.977Z,17.60
2018-04-29T23:06:05.038Z,17.60
2018-04-29T23:08:33.060Z,17.60
2018-04-29T23:11:00.979Z,17.50
2018-04-29T23:13:29.177Z,17.50
2018-04-29T23:16:04.923Z,17.50
2018-04-29T23:18:41.723Z,17.50
2018-04-29T23:21:19.820Z,17.50
2018-04-29T23:23:51.952Z,17.50
2018-04-29T23:29:05.404Z,17.30
2018-04-29T23:31:40.603Z,17.20
2018-04-29T23:34:13.244Z,17.20
2018-04-29T23:36:49.745Z,17.10
2018-04-29T23:39:24.925Z,17.10
2018-04-29T23:41:52.817Z,17.10
2018-04-29T23:44:20.698Z,17.10
2018-04-29T23:46:48.685Z,17.10
2018-04-29T23:49:16.578Z,17.10
2018-04-29T23:51:44.718Z,17.10
2018-04-29T23:54:12.738Z,17.10
2018-04-29T23:56:40.737Z,17.00
2018-04-29T23:59:08.577Z,17.00
